Aviation Digital Data Service (ADDS)

Output produced by TAFs form (0622 UTC 30 January 2015)
found at http://aviationweather.gov/adds/tafs/
 
KPUB 300529Z 3006/3106 VRB05KT P6SM OVC150 
     FM301900 14006KT P6SM VCSH BKN050 
     FM302300 10007KT P6SM VCSH BKN030